createdAt,value
2018-11-05T00:00:19.096Z,22.05
2018-11-05T00:07:51.930Z,23.25
2018-11-05T00:10:20.490Z,20.77
2018-11-05T00:12:49.417Z,22.23
2018-11-05T00:15:20.325Z,25.00
2018-11-05T00:17:49.340Z,21.02
2018-11-05T00:20:17.968Z,23.10
2018-11-05T00:22:46.488Z,22.10
2018-11-05T00:25:15.339Z,22.40
2018-11-05T00:27:43.960Z,23.55
2018-11-05T00:30:13.622Z,22.27
2018-11-05T00:32:42.681Z,26.30
2018-11-05T00:35:11.312Z,20.55
2018-11-05T00:37:39.804Z,20.85
2018-11-05T00:40:10.629Z,20.80
2018-11-05T00:42:39.504Z,20.95
2018-11-05T00:45:09.057Z,19.35
2018-11-05T00:47:37.537Z,21.65
2018-11-05T00:50:08.278Z,21.33
2018-11-05T00:52:36.879Z,21.40
2018-11-05T00:55:05.372Z,21.10
2018-11-05T00:57:33.795Z,18.37
2018-11-05T01:00:02.239Z,19.73
2018-11-05T01:02:31.112Z,17.20
2018-11-05T01:04:59.800Z,23.22
2018-11-05T01:07:28.453Z,19.95
2018-11-05T01:09:56.890Z,18.90
2018-11-05T01:12:25.652Z,17.62
2018-11-05T01:14:54.292Z,23.52
2018-11-05T01:17:22.862Z,17.70
2018-11-05T01:19:51.547Z,22.87
2018-11-05T01:22:20.087Z,18.85
2018-11-05T01:24:48.676Z,20.12
2018-11-05T01:27:19.688Z,19.20
2018-11-05T01:29:48.533Z,19.73
2018-11-05T01:32:17.209Z,19.82
2018-11-05T01:34:45.888Z,20.40
2018-11-05T01:37:15.275Z,24.00
2018-11-05T01:39:43.788Z,18.43
2018-11-05T01:42:12.792Z,20.70
2018-11-05T01:44:42.077Z,17.43
2018-11-05T01:47:10.673Z,18.80
2018-11-05T01:49:39.492Z,18.75
2018-11-05T01:52:08.689Z,18.33
2018-11-05T01:54:37.786Z,21.27
2018-11-05T01:57:06.369Z,16.33
2018-11-05T01:59:35.136Z,18.47
2018-11-05T02:02:03.767Z,19.57
2018-11-05T02:04:32.315Z,20.70
2018-11-05T02:07:00.700Z,19.77
2018-11-05T02:09:29.234Z,21.00
2018-11-05T02:11:57.655Z,15.70
2018-11-05T02:14:26.347Z,16.20
2018-11-05T02:16:54.973Z,18.70
2018-11-05T02:19:23.723Z,17.47
2018-11-05T02:21:52.400Z,18.17
2018-11-05T02:24:21.058Z,18.80
2018-11-05T02:26:49.432Z,19.50
2018-11-05T02:29:18.049Z,17.67
2018-11-05T02:31:46.429Z,16.33
2018-11-05T02:34:15.119Z,18.13
2018-11-05T02:36:43.697Z,16.93
2018-11-05T02:39:12.238Z,16.40
2018-11-05T02:41:40.580Z,16.75
2018-11-05T02:44:09.029Z,19.30
2018-11-05T02:46:37.688Z,16.17
2018-11-05T02:49:06.156Z,18.32
2018-11-05T02:51:34.776Z,18.27
2018-11-05T02:54:03.238Z,17.97
2018-11-05T02:56:31.871Z,17.60
2018-11-05T02:59:00.312Z,19.70
2018-11-05T03:01:29.145Z,19.30
2018-11-05T03:03:57.538Z,18.80
2018-11-05T03:06:26.112Z,18.75
2018-11-05T03:08:54.649Z,19.63
2018-11-05T03:11:23.572Z,18.50
2018-11-05T03:13:52.248Z,17.30
2018-11-05T03:16:21.161Z,17.77
2018-11-05T03:18:49.689Z,18.65
2018-11-05T03:21:18.421Z,18.53
2018-11-05T03:23:47.047Z,19.77
2018-11-05T03:26:15.595Z,19.10
2018-11-05T03:28:45.103Z,18.80
2018-11-05T03:31:13.948Z,17.77
2018-11-05T03:33:42.724Z,18.73
2018-11-05T03:36:11.979Z,15.53
2018-11-05T03:38:40.701Z,17.00
2018-11-05T03:41:10.150Z,18.43
2018-11-05T03:43:38.512Z,15.20
2018-11-05T03:46:06.928Z,18.30
2018-11-05T03:48:35.352Z,18.90
2018-11-05T03:51:03.941Z,21.40
2018-11-05T03:53:32.348Z,16.43
2018-11-05T03:56:00.929Z,14.90
2018-11-05T03:58:29.388Z,18.87
2018-11-05T04:00:57.802Z,18.00
2018-11-05T04:03:26.215Z,24.43
2018-11-05T04:05:54.654Z,18.82
2018-11-05T04:08:23.043Z,18.93
2018-11-05T04:10:51.477Z,21.77
2018-11-05T04:13:20.512Z,17.60
2018-11-05T04:15:49.214Z,20.90
2018-11-05T04:18:17.572Z,19.13
2018-11-05T04:20:45.972Z,23.60
2018-11-05T04:23:14.376Z,22.73
2018-11-05T04:25:42.781Z,23.30
2018-11-05T04:28:11.289Z,19.47
2018-11-05T04:30:39.732Z,19.10
2018-11-05T04:33:08.147Z,31.00
2018-11-05T04:35:36.914Z,24.27
2018-11-05T04:38:05.321Z,20.97
2018-11-05T04:40:33.757Z,25.90
2018-11-05T04:43:02.253Z,23.47
2018-11-05T04:45:30.619Z,22.50
2018-11-05T04:47:59.003Z,22.53
2018-11-05T04:50:27.424Z,20.72
2018-11-05T04:52:55.873Z,23.62
2018-11-05T04:55:24.268Z,22.30
2018-11-05T04:57:52.657Z,19.83
2018-11-05T05:00:21.046Z,17.77
2018-11-05T05:02:49.645Z,17.32
2018-11-05T05:05:19.095Z,20.17
2018-11-05T05:07:48.387Z,17.75
2018-11-05T05:10:16.877Z,23.70
2018-11-05T05:12:45.272Z,18.55
2018-11-05T05:15:14.512Z,18.37
2018-11-05T05:17:42.929Z,18.48
2018-11-05T05:20:13.593Z,18.52
2018-11-05T05:22:43.306Z,18.40
2018-11-05T05:25:11.614Z,18.00
2018-11-05T05:27:40.385Z,17.53
2018-11-05T05:30:12.568Z,19.40
2018-11-05T05:32:41.002Z,28.00
2018-11-05T05:35:09.464Z,31.93
2018-11-05T05:37:37.911Z,22.70
2018-11-05T05:40:07.067Z,29.10
2018-11-05T05:42:35.456Z,26.93
2018-11-05T05:45:05.389Z,25.30
2018-11-05T05:47:33.841Z,25.50
2018-11-05T05:50:03.662Z,22.50
2018-11-05T05:52:32.391Z,22.97
2018-11-05T05:55:01.323Z,22.33
2018-11-05T05:57:32.145Z,21.13
2018-11-05T06:00:00.861Z,22.90
2018-11-05T06:02:29.126Z,18.80
2018-11-05T06:04:57.529Z,21.93
2018-11-05T06:07:25.976Z,20.33
2018-11-05T06:09:54.413Z,25.93
2018-11-05T06:12:23.142Z,24.15
2018-11-05T06:14:51.644Z,24.07
2018-11-05T06:17:20.044Z,21.23
2018-11-05T06:19:48.584Z,20.08
2018-11-05T06:22:17.560Z,21.23
2018-11-05T06:24:46.064Z,17.40
2018-11-05T06:27:14.505Z,16.80
2018-11-05T06:29:42.890Z,16.80
2018-11-05T06:32:11.247Z,16.23
2018-11-05T06:34:40.111Z,15.10
2018-11-05T06:37:08.479Z,17.67
2018-11-05T06:39:37.885Z,16.37
2018-11-05T06:42:06.378Z,17.62
2018-11-05T06:44:36.753Z,17.85
2018-11-05T06:47:09.982Z,15.37
2018-11-05T06:49:38.616Z,20.77
2018-11-05T06:52:07.372Z,19.17
2018-11-05T06:54:35.992Z,19.13
2018-11-05T06:57:04.425Z,19.35
2018-11-05T06:59:33.092Z,22.43
2018-11-05T07:02:01.736Z,18.90
2018-11-05T07:04:30.196Z,18.90
2018-11-05T07:06:58.668Z,17.80
2018-11-05T07:09:27.300Z,20.10
2018-11-05T07:11:55.742Z,22.05
2018-11-05T07:14:24.216Z,19.80
2018-11-05T07:16:52.689Z,23.07
2018-11-05T07:19:21.188Z,21.23
2018-11-05T07:21:49.595Z,25.05
2018-11-05T07:24:17.937Z,25.90
2018-11-05T07:26:46.376Z,26.83
2018-11-05T07:29:14.827Z,29.10
2018-11-05T07:31:43.286Z,31.70
2018-11-05T07:34:11.771Z,25.57
2018-11-05T07:36:40.065Z,29.57
2018-11-05T07:39:11.099Z,26.70
2018-11-05T07:41:39.994Z,26.00
2018-11-05T07:44:08.648Z,23.63
2018-11-05T07:46:37.263Z,21.73
2018-11-05T07:49:05.682Z,25.55
2018-11-05T07:51:34.480Z,28.77
2018-11-05T07:54:10.689Z,30.63
2018-11-05T07:56:39.266Z,28.20
2018-11-05T07:59:07.647Z,34.90
2018-11-05T08:01:36.096Z,28.00
2018-11-05T08:04:05.106Z,26.60
2018-11-05T08:06:33.544Z,28.23
2018-11-05T08:09:02.174Z,28.67
2018-11-05T08:11:30.561Z,30.37
2018-11-05T08:13:58.956Z,36.03
2018-11-05T08:16:27.395Z,31.87
2018-11-05T08:18:55.821Z,27.27
2018-11-05T08:21:24.230Z,26.68
2018-11-05T08:23:52.612Z,26.33
2018-11-05T08:26:21.045Z,29.50
2018-11-05T08:28:49.479Z,29.90
2018-11-05T08:31:17.955Z,26.90
2018-11-05T08:33:47.093Z,30.03
2018-11-05T08:36:15.557Z,27.53
2018-11-05T08:38:43.996Z,28.33
2018-11-05T08:41:12.653Z,24.07
2018-11-05T08:43:41.087Z,26.70
2018-11-05T08:46:09.524Z,24.80
2018-11-05T08:48:37.880Z,29.47
2018-11-05T08:51:06.445Z,30.63
2018-11-05T08:53:34.710Z,27.77
2018-11-05T08:56:03.136Z,29.80
2018-11-05T08:58:31.678Z,28.60
2018-11-05T09:01:05.375Z,29.13
2018-11-05T09:03:33.809Z,24.50
2018-11-05T09:06:02.480Z,27.87
2018-11-05T09:08:31.231Z,24.10
2018-11-05T09:10:59.944Z,28.83
2018-11-05T09:13:28.134Z,23.60
2018-11-05T09:15:56.612Z,27.60
2018-11-05T09:18:25.050Z,24.33
2018-11-05T09:20:53.506Z,25.77
2018-11-05T09:23:21.839Z,26.33
2018-11-05T09:25:50.264Z,24.73
2018-11-05T09:28:18.747Z,28.83
2018-11-05T09:30:47.195Z,25.27
2018-11-05T09:33:15.611Z,26.87
2018-11-05T09:35:44.141Z,30.37
2018-11-05T09:38:12.726Z,25.25
2018-11-05T09:40:41.409Z,25.87
2018-11-05T09:43:09.923Z,26.03
2018-11-05T09:45:38.708Z,28.87
2018-11-05T09:48:07.238Z,29.63
2018-11-05T09:50:35.801Z,26.55
2018-11-05T09:53:04.278Z,27.47
2018-11-05T09:55:32.777Z,27.87
2018-11-05T09:58:02.015Z,25.17
2018-11-05T10:00:30.707Z,25.70
2018-11-05T10:03:06.336Z,26.87
2018-11-05T10:05:35.297Z,26.15
2018-11-05T10:08:03.707Z,23.12
2018-11-05T10:10:32.092Z,27.80
2018-11-05T10:13:00.489Z,27.48
2018-11-05T10:15:28.877Z,26.87
2018-11-05T10:17:57.282Z,27.73
2018-11-05T10:20:25.848Z,25.93
2018-11-05T10:22:54.264Z,28.13
2018-11-05T10:25:22.709Z,24.97
2018-11-05T10:27:51.864Z,24.70
2018-11-05T10:30:23.695Z,23.87
2018-11-05T10:32:52.230Z,24.63
2018-11-05T10:35:20.759Z,23.95
2018-11-05T10:37:49.188Z,26.43
2018-11-05T10:40:19.374Z,24.87
2018-11-05T10:42:48.162Z,26.40
2018-11-05T10:45:18.445Z,27.37
2018-11-05T10:47:47.686Z,25.63
2018-11-05T10:50:17.198Z,25.37
2018-11-05T10:52:46.980Z,24.57
2018-11-05T10:55:15.412Z,20.87
2018-11-05T10:57:44.081Z,20.57
2018-11-05T11:00:20.488Z,22.77
2018-11-05T11:02:54.496Z,21.17
2018-11-05T11:05:23.842Z,23.93
2018-11-05T11:07:53.092Z,21.27
2018-11-05T11:10:21.505Z,24.33
2018-11-05T11:12:49.926Z,21.93
2018-11-05T11:15:18.385Z,21.03
2018-11-05T11:17:46.701Z,23.35
2018-11-05T11:20:15.137Z,20.70
2018-11-05T11:22:43.553Z,18.87
2018-11-05T11:25:12.040Z,20.77
2018-11-05T11:27:40.698Z,20.27
2018-11-05T11:30:10.808Z,18.93
2018-11-05T11:32:39.368Z,20.52
2018-11-05T11:35:08.476Z,22.77
2018-11-05T11:37:36.853Z,22.67
2018-11-05T11:40:11.513Z,19.50
2018-11-05T11:42:40.869Z,20.30
2018-11-05T11:45:09.996Z,18.25
2018-11-05T11:47:38.569Z,28.15
2018-11-05T11:50:09.022Z,17.73
2018-11-05T11:52:37.367Z,19.97
2018-11-05T11:55:07.085Z,16.65
2018-11-05T11:57:35.531Z,21.20
2018-11-05T12:00:04.090Z,15.37
2018-11-05T12:02:32.540Z,17.93
2018-11-05T12:05:02.044Z,16.53
2018-11-05T12:07:30.393Z,15.80
2018-11-05T12:09:58.829Z,16.40
2018-11-05T12:12:27.259Z,20.15
2018-11-05T12:14:55.963Z,15.93
2018-11-05T12:17:24.268Z,15.87
2018-11-05T12:19:52.741Z,18.47
2018-11-05T12:22:21.159Z,18.77
2018-11-05T12:24:49.672Z,25.50
2018-11-05T12:27:18.116Z,16.60
2018-11-05T12:29:47.078Z,22.40
2018-11-05T12:32:15.621Z,20.97
2018-11-05T12:34:44.018Z,27.73
2018-11-05T12:37:12.496Z,18.23
2018-11-05T12:39:40.885Z,19.27
2018-11-05T12:42:09.312Z,23.93
2018-11-05T12:44:37.839Z,19.57
2018-11-05T12:47:06.180Z,23.93
2018-11-05T12:49:34.545Z,27.82
2018-11-05T12:52:02.984Z,21.30
2018-11-05T12:54:31.394Z,24.23
2018-11-05T12:56:59.834Z,20.07
2018-11-05T12:59:28.959Z,24.63
2018-11-05T13:01:58.961Z,22.93
2018-11-05T13:04:28.146Z,26.77
2018-11-05T13:06:56.683Z,26.62
2018-11-05T13:09:25.137Z,28.53
2018-11-05T13:11:53.540Z,24.90
2018-11-05T13:14:22.148Z,21.77
2018-11-05T13:16:51.504Z,28.60
2018-11-05T13:19:19.940Z,23.63
2018-11-05T13:21:48.243Z,25.67
2018-11-05T13:24:16.750Z,26.93
2018-11-05T13:26:45.243Z,24.03
2018-11-05T13:29:13.612Z,26.27
2018-11-05T13:31:41.952Z,25.77
2018-11-05T13:34:10.536Z,25.40
2018-11-05T13:36:39.141Z,25.57
2018-11-05T13:39:08.623Z,32.10
2018-11-05T13:41:37.041Z,25.87
2018-11-05T13:44:05.552Z,23.00
2018-11-05T13:46:34.456Z,26.20
2018-11-05T13:49:03.162Z,26.80
2018-11-05T13:51:31.368Z,25.50
2018-11-05T13:53:59.914Z,29.17
2018-11-05T13:56:28.315Z,28.50
2018-11-05T13:58:56.704Z,29.87
2018-11-05T14:01:25.124Z,33.00
2018-11-05T14:03:53.850Z,28.98
2018-11-05T14:06:22.313Z,32.40
2018-11-05T14:08:50.707Z,28.10
2018-11-05T14:11:19.150Z,28.87
2018-11-05T14:13:47.626Z,30.27
2018-11-05T14:16:16.026Z,25.77
2018-11-05T14:18:44.424Z,28.67
2018-11-05T14:21:12.931Z,37.83
2018-11-05T14:23:41.337Z,38.03
2018-11-05T14:26:09.742Z,30.10
2018-11-05T14:28:38.526Z,25.60
2018-11-05T14:31:06.620Z,26.00
2018-11-05T14:33:35.034Z,27.17
2018-11-05T14:36:03.510Z,29.13
2018-11-05T14:38:32.646Z,32.93
2018-11-05T14:41:01.057Z,32.27
2018-11-05T14:43:29.502Z,30.40
2018-11-05T14:45:57.903Z,29.80
2018-11-05T14:48:26.395Z,28.83
2018-11-05T14:50:54.831Z,31.20
2018-11-05T14:53:23.198Z,29.27
2018-11-05T14:55:51.736Z,27.22
2018-11-05T14:58:20.229Z,24.00
2018-11-05T15:00:48.735Z,32.30
2018-11-05T15:03:17.168Z,31.93
2018-11-05T15:05:45.646Z,28.60
2018-11-05T15:08:14.155Z,30.20
2018-11-05T15:10:42.573Z,32.20
2018-11-05T15:13:11.100Z,29.20
2018-11-05T15:15:39.458Z,33.20
2018-11-05T15:18:08.062Z,28.50
2018-11-05T15:20:38.872Z,26.67
2018-11-05T15:23:08.965Z,30.43
2018-11-05T15:25:38.332Z,31.82
2018-11-05T15:28:08.272Z,24.90
2018-11-05T15:30:38.401Z,28.83
2018-11-05T15:33:08.086Z,31.93
2018-11-05T15:38:21.839Z,34.18
2018-11-05T15:40:50.400Z,84.87
2018-11-05T15:43:18.933Z,69.73
2018-11-05T15:45:47.376Z,50.30
2018-11-05T15:48:16.372Z,39.92
2018-11-05T15:50:45.803Z,36.13
2018-11-05T15:53:15.599Z,27.20
2018-11-05T15:55:44.654Z,29.10
2018-11-05T15:58:13.867Z,30.35
2018-11-05T16:00:42.336Z,33.77
2018-11-05T16:03:10.776Z,29.57
2018-11-05T16:05:39.193Z,34.57
2018-11-05T16:08:08.260Z,34.30
2018-11-05T16:10:37.482Z,33.53
2018-11-05T16:13:06.369Z,31.93
2018-11-05T16:15:35.035Z,32.53
2018-11-05T16:18:03.529Z,34.10
2018-11-05T16:20:31.968Z,30.97
2018-11-05T16:23:00.456Z,35.43
2018-11-05T16:25:28.900Z,32.50
2018-11-05T16:27:57.705Z,29.12
2018-11-05T16:30:26.361Z,32.90
2018-11-05T16:32:55.084Z,40.63
2018-11-05T16:35:23.579Z,37.50
2018-11-05T16:37:52.017Z,40.97
2018-11-05T16:40:20.854Z,34.43
2018-11-05T16:42:50.233Z,45.00
2018-11-05T16:45:18.718Z,32.55
2018-11-05T16:47:47.606Z,32.63
2018-11-05T16:50:25.567Z,35.43
2018-11-05T16:52:53.999Z,35.63
2018-11-05T16:55:22.424Z,40.28
2018-11-05T16:57:51.754Z,34.47
2018-11-05T17:00:20.356Z,37.60
2018-11-05T17:02:49.641Z,39.70
2018-11-05T17:05:17.794Z,39.90
2018-11-05T17:07:46.203Z,34.73
2018-11-05T17:10:15.142Z,36.60
2018-11-05T17:12:44.049Z,37.30
2018-11-05T17:15:13.850Z,38.02
2018-11-05T17:17:42.953Z,31.73
2018-11-05T17:20:13.807Z,33.50
2018-11-05T17:22:42.867Z,40.50
2018-11-05T17:25:12.015Z,49.67
2018-11-05T17:27:40.849Z,38.63
2018-11-05T17:30:15.685Z,36.73
2018-11-05T17:32:44.757Z,42.20
2018-11-05T17:35:13.786Z,41.27
2018-11-05T17:37:42.396Z,35.03
2018-11-05T17:40:15.517Z,36.30
2018-11-05T17:42:44.155Z,36.33
2018-11-05T17:45:14.019Z,34.85
2018-11-05T17:47:42.514Z,59.33
2018-11-05T17:50:13.320Z,62.20
2018-11-05T17:52:42.274Z,51.30
2018-11-05T17:55:11.515Z,50.90
2018-11-05T17:57:40.706Z,40.47
2018-11-05T18:00:11.899Z,38.40
2018-11-05T18:02:40.358Z,36.77
2018-11-05T18:05:08.830Z,46.30
2018-11-05T18:07:37.286Z,39.97
2018-11-05T18:10:06.523Z,42.90
2018-11-05T18:12:35.024Z,41.60
2018-11-05T18:15:03.864Z,36.70
2018-11-05T18:17:32.387Z,37.37
2018-11-05T18:20:01.222Z,41.10
2018-11-05T18:22:29.719Z,39.13
2018-11-05T18:24:58.105Z,37.97
2018-11-05T18:27:26.532Z,45.90
2018-11-05T18:29:55.002Z,39.60
2018-11-05T18:32:23.515Z,39.73
2018-11-05T18:34:52.808Z,34.33
2018-11-05T18:37:21.278Z,40.07
2018-11-05T18:39:49.766Z,44.90
2018-11-05T18:42:18.225Z,38.43
2018-11-05T18:44:46.719Z,40.57
2018-11-05T18:47:15.181Z,45.03
2018-11-05T18:49:43.611Z,39.73
2018-11-05T18:52:18.720Z,43.07
2018-11-05T18:54:47.141Z,41.70
2018-11-05T18:57:15.783Z,44.27
2018-11-05T18:59:44.142Z,40.70
2018-11-05T19:02:16.889Z,42.00
2018-11-05T19:04:45.347Z,46.27
2018-11-05T19:07:13.775Z,43.48
2018-11-05T19:09:42.293Z,50.93
2018-11-05T19:12:10.693Z,52.07
2018-11-05T19:14:39.229Z,57.25
2018-11-05T19:17:07.648Z,56.33
2018-11-05T19:19:36.599Z,50.43
2018-11-05T19:22:05.513Z,47.33
2018-11-05T19:24:34.228Z,48.30
2018-11-05T19:27:02.613Z,44.93
2018-11-05T19:29:31.097Z,46.03
2018-11-05T19:31:59.585Z,42.93
2018-11-05T19:34:28.047Z,57.08
2018-11-05T19:38:45.147Z,47.23
2018-11-05T19:41:13.635Z,52.70
2018-11-05T19:43:42.106Z,44.43
2018-11-05T19:46:10.554Z,42.85
2018-11-05T19:48:39.104Z,44.73
2018-11-05T19:51:07.555Z,41.50
2018-11-05T19:53:36.159Z,50.33
2018-11-05T19:56:04.903Z,51.00
2018-11-05T19:58:34.483Z,51.98
2018-11-05T20:01:02.993Z,49.20
2018-11-05T20:03:31.396Z,48.30
2018-11-05T20:06:01.195Z,48.73
2018-11-05T20:08:29.591Z,41.58
2018-11-05T20:10:58.023Z,45.10
2018-11-05T20:13:26.540Z,45.70
2018-11-05T20:15:55.411Z,52.60
2018-11-05T20:18:24.793Z,44.43
2018-11-05T20:20:53.243Z,51.20
2018-11-05T20:23:21.670Z,48.65
2018-11-05T20:25:51.012Z,46.40
2018-11-05T20:28:19.547Z,44.50
2018-11-05T20:30:48.049Z,43.23
2018-11-05T20:33:16.763Z,42.40
2018-11-05T20:35:45.782Z,54.45
2018-11-05T20:38:14.317Z,49.30
2018-11-05T20:40:42.892Z,54.70
2018-11-05T20:43:11.442Z,49.87
2018-11-05T20:45:39.928Z,54.60
2018-11-05T20:48:08.428Z,46.63
2018-11-05T20:50:36.951Z,51.47
2018-11-05T20:53:05.715Z,58.00
2018-11-05T20:55:34.260Z,42.63
2018-11-05T20:58:02.721Z,49.60
2018-11-05T21:00:31.192Z,43.03
2018-11-05T21:02:59.689Z,41.53
2018-11-05T21:05:28.159Z,48.57
2018-11-05T21:07:58.927Z,49.30
2018-11-05T21:10:27.377Z,47.37
2018-11-05T21:12:55.791Z,45.23
2018-11-05T21:15:24.218Z,52.13
2018-11-05T21:17:54.542Z,45.03
2018-11-05T21:20:23.068Z,52.97
2018-11-05T21:22:51.823Z,47.83
2018-11-05T21:25:20.136Z,49.37
2018-11-05T21:27:48.519Z,46.63
2018-11-05T21:30:18.854Z,43.13
2018-11-05T21:32:47.347Z,50.10
2018-11-05T21:35:17.151Z,53.03
2018-11-05T21:37:45.664Z,50.33
2018-11-05T21:40:15.566Z,52.87
2018-11-05T21:42:44.001Z,51.80
2018-11-05T21:45:13.607Z,48.07
2018-11-05T21:47:43.106Z,50.83
2018-11-05T21:50:13.441Z,48.83
2018-11-05T21:52:42.477Z,49.77
2018-11-05T21:55:11.168Z,51.97
2018-11-05T21:57:41.288Z,54.38
2018-11-05T22:00:13.687Z,48.38
2018-11-05T22:02:47.580Z,42.83
2018-11-05T22:05:16.579Z,44.23
2018-11-05T22:07:45.288Z,47.10
2018-11-05T22:10:14.245Z,50.30
2018-11-05T22:12:43.662Z,44.33
2018-11-05T22:15:12.212Z,45.48
2018-11-05T22:17:40.681Z,49.80
2018-11-05T22:20:10.140Z,48.07
2018-11-05T22:22:39.074Z,52.00
2018-11-05T22:25:07.788Z,58.47
2018-11-05T22:27:36.490Z,48.20
2018-11-05T22:30:06.227Z,49.97
2018-11-05T22:32:34.747Z,48.57
2018-11-05T22:35:03.264Z,46.70
2018-11-05T22:37:31.688Z,49.93
2018-11-05T22:40:00.179Z,52.20
2018-11-05T22:42:33.291Z,43.60
2018-11-05T22:45:01.763Z,49.70
2018-11-05T22:47:30.244Z,49.67
2018-11-05T22:49:58.631Z,52.35
2018-11-05T22:52:27.372Z,52.33
2018-11-05T22:54:55.845Z,53.90
2018-11-05T22:57:24.221Z,45.90
2018-11-05T22:59:52.676Z,55.10
2018-11-05T23:02:21.126Z,46.30
2018-11-05T23:04:49.575Z,46.73
2018-11-05T23:07:18.105Z,51.85
2018-11-05T23:09:46.583Z,50.43
2018-11-05T23:12:15.215Z,55.00
2018-11-05T23:14:43.688Z,51.95
2018-11-05T23:17:12.840Z,52.73
2018-11-05T23:19:41.304Z,48.83
2018-11-05T23:22:09.712Z,45.83
2018-11-05T23:24:48.745Z,45.33
2018-11-05T23:27:46.623Z,48.83
2018-11-05T23:30:15.111Z,50.63
2018-11-05T23:32:43.780Z,49.25
2018-11-05T23:35:12.478Z,48.10
2018-11-05T23:37:41.723Z,53.93
2018-11-05T23:40:10.566Z,49.63
2018-11-05T23:42:39.874Z,50.37
2018-11-05T23:45:13.934Z,48.53
2018-11-05T23:47:54.407Z,63.10
2018-11-05T23:50:22.867Z,50.30
2018-11-05T23:52:52.235Z,52.73
2018-11-05T23:55:20.695Z,50.95
2018-11-05T23:57:49.105Z,61.60
